Laida — EAVE — position and weather

sailwx.info

Track history (hours):
 
Tides and Currents Weather Stations Pressure Air Temp Water Temp Dewpoint Dewpoint Depression Visibility Wind Speed Wind Dir Waves Ship Positions

Laida

Last reported at 2014-Aug-29 03:07 UTC. Time now 2014-Sep-01 14:11 UTC.
Position N 35°58' W 005°24'.

Length 100 m; draft 6.5 m.

Type: Cargo ship. MMSI: 224509000.

Date/timePositionNaut miles runAvg speedWind from/ knotsBaromVisibWave heightAir tempDewpointWater temp
2014-Aug-29 03:07N 35°58' W 005°24'68 9.8
2014-Aug-28 20:09N 36°02' W 006°48'1811.2
2014-Aug-28 18:32N 36°06' W 007°10'1211.8
2014-Aug-28 17:33N 36°10' W 007°24'1211.8
2014-Aug-28 16:33N 36°13' W 007°38'1211.8
2014-Aug-28 15:33N 36°16' W 007°52'1212.0
2014-Aug-28 14:33N 36°19' W 008°06'3712.2
2014-Aug-28 11:33N 36°28' W 008°50'1212.3
2014-Aug-28 10:34N 36°32' W 009°05'1412.3
2014-Aug-28 09:24N 36°38' W 009°21'1012.2
2014-Aug-28 08:33N 36°45' W 009°30'  
2014-Aug-24 13:30N 50°35' E 000°19'1213.0
2014-Aug-24 12:33N 50°38' E 000°37'1212.2
2014-Aug-24 11:33N 50°46' E 000°52'2811.4
2014-Aug-24 09:05N 51°04' E 001°27'713.5
2014-Aug-24 08:33N 51°08' E 001°36'1414.2
2014-Aug-24 07:34N 51°18' E 001°51'1411.0
2014-Aug-24 06:19N 51°22' E 002°12'1012.6
2014-Aug-24 05:31N 51°23' E 002°28'1212.0
2014-Aug-24 04:33N 51°22' E 002°47'1812.4
2014-Aug-24 03:08N 51°25' E 003°15'712.4
2014-Aug-24 02:33N 51°25' E 003°26'1010.2
2014-Aug-24 01:33N 51°24' E 003°43'9 8.8
2014-Aug-24 00:33N 51°23' E 003°57'5 4.7
2014-Aug-23 23:33N 51°22' E 004°04'8 8.0
2014-Aug-23 22:33N 51°20' E 004°16'4 4.3
2014-Aug-23 21:34N 51°17' E 004°20'1 0.9
2014-Aug-23 20:32N 51°17' E 004°21'0 0.0
2014-Aug-23 19:32N 51°17' E 004°21'26 1.6
2014-Aug-23 03:33N 51°24' E 003°41'9 9.1
2014-Aug-23 02:33N 51°25' E 003°27'1212.0
2014-Aug-23 01:33N 51°24' E 003°07'1313.0
2014-Aug-23 00:33N 51°22' E 002°47'10 9.9
2014-Aug-22 23:31N 51°22' E 002°30'1212.7
2014-Aug-22 22:34N 51°16' E 002°13'1312.7
2014-Aug-22 21:33N 51°10' E 001°55'1312.7
2014-Aug-22 20:32N 51°02' E 001°40'5410.8
2014-Aug-22 15:32N 50°26' E 000°35'1110.8
2014-Aug-22 14:29N 50°23' E 000°18'  
Track history (hours):
 
Tides and Currents Weather Stations Pressure Air Temp Water Temp Dewpoint Dewpoint Depression Visibility Wind Speed Wind Dir Waves Ship Positions

Laida

Last reported at 2014-Aug-29 03:07 UTC. Time now 2014-Sep-01 14:11 UTC.
Position N 35°58' W 005°24'.

Length 100 m; draft 6.5 m.

Type: Cargo ship. MMSI: 224509000.

Date/timePositionNaut miles runAvg speedWind from/ knotsBaromVisibWave heightAir tempDewpointWater temp
2014-Aug-29 03:07N 35°58' W 005°24'68 9.8
2014-Aug-28 20:09N 36°02' W 006°48'1811.2
2014-Aug-28 18:32N 36°06' W 007°10'1211.8
2014-Aug-28 17:33N 36°10' W 007°24'1211.8
2014-Aug-28 16:33N 36°13' W 007°38'1211.8
2014-Aug-28 15:33N 36°16' W 007°52'1212.0
2014-Aug-28 14:33N 36°19' W 008°06'3712.2
2014-Aug-28 11:33N 36°28' W 008°50'1212.3
2014-Aug-28 10:34N 36°32' W 009°05'1412.3
2014-Aug-28 09:24N 36°38' W 009°21'1012.2
2014-Aug-28 08:33N 36°45' W 009°30'  
2014-Aug-24 13:30N 50°35' E 000°19'1213.0
2014-Aug-24 12:33N 50°38' E 000°37'1212.2
2014-Aug-24 11:33N 50°46' E 000°52'2811.4
2014-Aug-24 09:05N 51°04' E 001°27'713.5
2014-Aug-24 08:33N 51°08' E 001°36'1414.2
2014-Aug-24 07:34N 51°18' E 001°51'1411.0
2014-Aug-24 06:19N 51°22' E 002°12'1012.6
2014-Aug-24 05:31N 51°23' E 002°28'1212.0
2014-Aug-24 04:33N 51°22' E 002°47'1812.4
2014-Aug-24 03:08N 51°25' E 003°15'712.4
2014-Aug-24 02:33N 51°25' E 003°26'1010.2
2014-Aug-24 01:33N 51°24' E 003°43'9 8.8
2014-Aug-24 00:33N 51°23' E 003°57'5 4.7
2014-Aug-23 23:33N 51°22' E 004°04'8 8.0
2014-Aug-23 22:33N 51°20' E 004°16'4 4.3
2014-Aug-23 21:34N 51°17' E 004°20'1 0.9
2014-Aug-23 20:32N 51°17' E 004°21'0 0.0
2014-Aug-23 19:32N 51°17' E 004°21'26 1.6
2014-Aug-23 03:33N 51°24' E 003°41'9 9.1
2014-Aug-23 02:33N 51°25' E 003°27'1212.0
2014-Aug-23 01:33N 51°24' E 003°07'1313.0
2014-Aug-23 00:33N 51°22' E 002°47'10 9.9
2014-Aug-22 23:31N 51°22' E 002°30'1212.7
2014-Aug-22 22:34N 51°16' E 002°13'1312.7
2014-Aug-22 21:33N 51°10' E 001°55'1312.7
2014-Aug-22 20:32N 51°02' E 001°40'5410.8
2014-Aug-22 15:32N 50°26' E 000°35'1110.8
2014-Aug-22 14:29N 50°23' E 000°18'  

Dump ship's entire track history